< < Back
Terminal Aerodrome Forecast


Current Version              Previous Versions:   1  2  3  4  5  6  7  8  9  

Terminal Aerodrome Forecast

353
FTUS42 KTAE 181700
TAFTLH
TAF
KTLH 181722Z 1818/1918 31003KT P6SM SCT100 BKN250=

Latest METAR

812
SAUS80 KWBC 181500 RRE
MTRTLH
METAR KTLH 191453Z 10006KT 10SM BKN055 BKN250 13/03 A3015 RMK AO2 SLP210
T01330033 50007 $


USA.gov is the U.S. government's official web portal to all federal, state and local government web resources and services.